createdAt,value
2017-10-24T00:04:06.099Z,10.43
2017-10-24T00:13:59.033Z,10.53
2017-10-24T00:23:56.897Z,10.8
2017-10-24T00:33:58.931Z,11.14
2017-10-24T00:43:54.880Z,11.14
2017-10-24T00:54:09.156Z,11.34
2017-10-24T01:04:02.567Z,11.44
2017-10-24T01:13:54.979Z,11.57
2017-10-24T01:23:56.980Z,11.8
2017-10-24T01:34:12.274Z,12.06
2017-10-24T01:43:59.956Z,12.09
2017-10-24T01:53:55.932Z,12.23
2017-10-24T02:03:56.925Z,12.24
2017-10-24T02:13:54.931Z,12.51
2017-10-24T02:23:55.041Z,12.57
2017-10-24T02:33:54.960Z,12.74
2017-10-24T02:44:00.350Z,12.63
2017-10-24T02:53:57.057Z,12.63
2017-10-24T03:03:58.550Z,12.7
2017-10-24T03:13:55.012Z,12.75
2017-10-24T03:23:59.878Z,12.79
2017-10-24T03:33:55.029Z,12.87
2017-10-24T03:44:00.627Z,12.87
2017-10-24T03:53:58.735Z,13.06
2017-10-24T04:03:55.121Z,13.06
2017-10-24T04:13:58.265Z,12.99
2017-10-24T04:24:03.427Z,13.03
2017-10-24T04:33:57.144Z,13.04
2017-10-24T04:43:57.112Z,12.93
2017-10-24T04:54:01.167Z,13.07
2017-10-24T05:03:55.073Z,12.97
2017-10-24T05:13:56.186Z,13.06
2017-10-24T05:23:56.154Z,13.04
2017-10-24T05:34:02.774Z,13.09
2017-10-24T05:44:02.125Z,13.11
2017-10-24T05:53:57.134Z,13.22
2017-10-24T06:04:08.038Z,13.21
2017-10-24T06:13:59.725Z,13.21
2017-10-24T06:23:56.227Z,13.11
2017-10-24T06:34:00.980Z,13.17
2017-10-24T06:43:56.083Z,13.18
2017-10-24T06:53:55.278Z,13.3
2017-10-24T07:03:57.305Z,13.52
2017-10-24T07:13:55.293Z,13.41
2017-10-24T07:23:56.299Z,13.56
2017-10-24T07:33:55.338Z,13.59
2017-10-24T07:43:55.611Z,13.71
2017-10-24T07:53:57.309Z,13.77
2017-10-24T08:04:01.036Z,13.92
2017-10-24T08:13:57.317Z,14.16
2017-10-24T08:23:55.328Z,14.07
2017-10-24T08:33:55.288Z,14.17
2017-10-24T08:43:55.394Z,14.24
2017-10-24T08:53:55.327Z,14.31
2017-10-24T09:03:55.721Z,14.49
2017-10-24T09:13:55.575Z,14.71
2017-10-24T09:23:55.344Z,14.65
2017-10-24T09:33:55.643Z,14.62
2017-10-24T09:43:55.715Z,14.67
2017-10-24T09:53:55.359Z,14.71
2017-10-24T10:03:55.392Z,14.78
2017-10-24T10:13:55.720Z,14.72
2017-10-24T10:23:55.409Z,14.91
2017-10-24T10:33:55.961Z,14.9
2017-10-24T10:43:55.702Z,15.19
2017-10-24T10:53:55.408Z,15.38
2017-10-24T11:03:55.797Z,15.61
2017-10-24T11:13:55.524Z,16.01
2017-10-24T11:23:55.437Z,16.41
2017-10-24T11:33:55.480Z,16.75
2017-10-24T11:43:55.458Z,16.92
2017-10-24T11:53:55.499Z,16.96
2017-10-24T12:03:55.493Z,17.25
2017-10-24T12:13:55.482Z,16.81
2017-10-24T12:23:55.504Z,16.93
2017-10-24T12:33:55.598Z,16.81
2017-10-24T12:43:55.558Z,16.53
2017-10-24T12:53:55.537Z,16.33
2017-10-24T13:03:55.530Z,16.14
2017-10-24T13:13:55.568Z,16.41
2017-10-24T13:23:55.600Z,16.49
2017-10-24T13:33:55.640Z,16.23
2017-10-24T13:43:55.727Z,16
2017-10-24T13:53:55.704Z,15.78
2017-10-24T14:03:55.619Z,15.82
2017-10-24T14:13:55.833Z,15.78
2017-10-24T14:23:56.824Z,15.78
2017-10-24T14:33:56.279Z,15.76
2017-10-24T14:43:56.231Z,15.6
2017-10-24T14:53:56.182Z,15.61
2017-10-24T15:03:55.979Z,15.61
2017-10-24T15:13:55.925Z,15.72
2017-10-24T15:23:55.888Z,15.78
2017-10-24T15:33:55.810Z,15.6
2017-10-24T15:43:55.867Z,15.67
2017-10-24T15:53:55.858Z,15.61
2017-10-24T16:03:55.807Z,15.66
2017-10-24T16:13:55.890Z,15.59
2017-10-24T16:23:55.848Z,15.61
2017-10-24T16:33:55.952Z,15.7
2017-10-24T16:43:55.820Z,15.64
2017-10-24T16:53:55.991Z,15.56
2017-10-24T17:03:56.354Z,15.72
2017-10-24T17:13:55.945Z,15.7
2017-10-24T17:23:55.794Z,15.85
2017-10-24T17:33:55.944Z,15.85
2017-10-24T17:43:56.094Z,15.84
2017-10-24T17:53:55.852Z,15.92
2017-10-24T18:03:55.874Z,15.88
2017-10-24T18:13:55.849Z,15.97
2017-10-24T18:23:55.849Z,16.07
2017-10-24T18:33:55.874Z,15.94
2017-10-24T18:43:55.932Z,16.11
2017-10-24T18:53:56.016Z,16.25
2017-10-24T19:03:56.014Z,16.26
2017-10-24T19:13:55.919Z,16.35
2017-10-24T19:23:56.006Z,16.41
2017-10-24T19:33:55.962Z,16.44
2017-10-24T19:43:56.175Z,16.49
2017-10-24T19:53:56.176Z,16.58
2017-10-24T20:03:56.053Z,16.5
2017-10-24T20:13:57.206Z,16.58
2017-10-24T20:23:56.209Z,16.56
2017-10-24T20:33:56.058Z,16.63
2017-10-24T20:43:56.384Z,16.63
2017-10-24T20:53:56.115Z,16.85
2017-10-24T21:03:56.128Z,16.86
2017-10-24T21:13:57.225Z,16.75
2017-10-24T21:23:56.197Z,16.83
2017-10-24T21:33:56.203Z,16.75
2017-10-24T21:43:56.202Z,16.83
2017-10-24T21:53:56.274Z,16.93
2017-10-24T22:03:56.245Z,16.75
2017-10-24T22:13:56.175Z,16.86
2017-10-24T22:24:02.998Z,16.89
2017-10-24T22:33:56.220Z,16.89
2017-10-24T22:43:56.131Z,16.93
2017-10-24T22:53:56.185Z,16.99
2017-10-24T23:03:56.175Z,16.96
2017-10-24T23:13:56.241Z,16.98
2017-10-24T23:23:56.274Z,16.95
2017-10-24T23:33:56.256Z,16.85
2017-10-24T23:43:56.261Z,17
2017-10-24T23:53:56.552Z,16.88
